Latest Weather Observations for Norah Head

IDN60801

Issued at 7:35 am EST Saturday 30 August 2014 (issued every 30 minutes, with the page automatically refreshed every 10 minutes)

About weather observations | Map of weather stations | Latest weather observations for NSW | Other Formats
Station Details ID: 061366 Name: NORAH HEAD AWS Lat: -33.28 Lon: 151.58 Height: 18.8 m
Data from the previous 72 hours. | See also: Recent months at Norah Head
Date/Time
EST
Temp
°C
App
Temp
°C
Dew
Point
Rel
Hum
%
Delta-T
°C
Wind Press
QNH
hPa
Press
MSL
hPa
Rain
since 9 am
mm
Dir
 
Spd
km/h
Gust
km/h
Spd
kts
Gust
kts
30/07:30am 14.0 9.5 12.6 91 0.8 S 28 43 15 23 1022.3 - 4.8
30/07:08am 14.1 9.7 12.8 92 0.7 S 28 54 15 29 1022.1 - 4.8
30/07:00am 13.4 10.3 12.1 92 0.7 S 20 32 11 17 1022.1 1022.1 4.8
30/06:30am 13.1 9.6 12.3 95 0.4 S 22 35 12 19 1021.9 - 4.8
30/06:00am 12.4 9.6 11.5 94 0.5 S 17 33 9 18 1021.8 1021.8 3.6
30/05:30am 12.2 9.0 11.3 94 0.5 S 19 30 10 16 1021.6 - 3.2
30/05:00am 11.8 8.3 10.2 90 0.8 S 19 30 10 16 1021.4 1021.4 2.8
30/04:30am 13.2 8.2 11.1 87 1.1 S 28 41 15 22 1021.4 - 2.4
30/04:00am 12.4 9.3 10.3 87 1.1 S 17 28 9 15 1021.3 1021.3 2.0
30/03:30am 12.7 8.7 10.4 86 1.2 S 22 37 12 20 1021.2 - 2.0
30/03:01am 13.4 7.7 11.3 87 1.1 S 32 54 17 29 1021.2 - 1.8
30/03:00am 13.5 8.2 11.2 86 1.2 S 30 46 16 25 1021.3 1021.3 1.8
30/02:42am 13.6 8.5 10.6 82 1.6 S 28 46 15 25 1021.3 - 1.6
30/02:30am 13.5 9.0 9.9 79 1.9 S 24 35 13 19 1021.5 - 1.6
30/02:00am 13.2 8.1 10.6 84 1.4 S 28 41 15 22 1021.8 1021.8 1.6
30/01:30am 13.0 7.5 10.4 84 1.3 S 30 46 16 25 1022.0 - 1.6
30/01:20am 12.9 7.4 10.6 86 1.2 S 30 48 16 26 1022.3 - 1.6
30/01:00am 12.8 9.0 9.8 82 1.5 S 20 37 11 20 1022.4 1022.4 1.6
30/12:30am 13.0 7.5 10.4 84 1.3 S 30 44 16 24 1022.7 - 1.6
30/12:00am 13.3 7.6 9.9 80 1.7 S 30 46 16 25 1022.9 1022.9 1.4
 
Date/Time
EST
Temp
°C
App
Temp
°C
Dew
Point
Rel
Hum
%
Delta-T
°C
Wind Press
QNH
hPa
Press
MSL
hPa
Rain
since 9 am
mm
Dir
 
Spd
km/h
Gust
km/h
Spd
kts
Gust
kts
29/11:30pm 14.1 9.6 8.5 69 2.8 S 22 39 12 21 1022.9 - 1.4
29/11:00pm 14.2 10.8 7.7 65 3.2 S 15 24 8 13 1022.9 1022.9 1.4
29/10:30pm 14.9 10.5 9.1 68 3.0 S 22 33 12 18 1023.0 - 1.4
29/10:00pm 14.4 10.3 7.9 65 3.2 S 19 33 10 18 1023.1 1023.1 1.4
29/09:31pm 15.0 9.2 7.8 62 3.6 S 28 46 15 25 1023.1 - 1.4
29/09:30pm 15.1 9.5 8.8 66 3.2 S 28 44 15 24 1023.2 - 1.4
29/09:12pm 15.5 8.0 9.4 67 3.2 SSE 39 57 21 31 1023.1 - 1.4
29/09:00pm 15.5 6.4 8.5 63 3.5 SSE 46 61 25 33 1023.2 1023.2 1.4
29/08:41pm 15.6 7.6 9.1 65 3.3 SSE 41 61 22 33 1023.1 - 1.4
29/08:30pm 15.6 6.6 8.8 64 3.5 SSE 46 63 25 34 1022.9 - 1.4
29/08:19pm 15.5 6.8 8.5 63 3.6 SSE 44 65 24 35 1023.2 - 1.4
29/08:00pm 15.5 5.3 8.5 63 3.5 SSE 52 67 28 36 1023.0 1023.0 1.4
29/07:30pm 15.6 6.3 9.3 66 3.2 SSE 48 67 26 36 1023.1 - 1.4
29/07:01pm 15.6 6.5 9.9 69 3.0 SE 48 69 26 37 1022.9 - 1.4
29/07:00pm 15.7 7.0 10.0 69 3.0 SE 46 61 25 33 1023.0 1023.0 1.4
29/06:50pm 15.5 4.7 9.2 66 3.2 SE 56 67 30 36 1022.8 - 1.4
29/06:43pm 15.5 4.6 9.0 65 3.3 S 56 67 30 36 1022.8 - 1.4
29/06:31pm 15.6 5.3 9.7 68 3.1 SE 54 65 29 35 1022.8 - 1.4
29/06:30pm 15.6 4.7 9.5 67 3.1 S 57 72 31 39 1022.8 - 1.4
29/06:00pm 15.6 7.0 10.4 71 2.7 S 46 65 25 35 1022.7 1022.7 1.4
29/05:31pm 15.0 8.6 10.8 76 2.2 S 35 56 19 30 1022.7 - 1.4
29/05:30pm 15.1 8.9 11.3 78 2.0 S 35 54 19 29 1022.7 - 1.4
29/05:25pm 15.3 9.7 12.1 81 1.7 S 33 52 18 28 1022.8 - 1.4
29/05:00pm 14.7 9.1 12.2 85 1.4 SSW 33 46 18 25 1022.9 1022.9 1.2
29/04:34pm 15.7 10.0 11.7 77 2.2 S 33 52 18 28 1022.7 - 0.6
29/04:30pm 15.4 9.7 11.2 76 2.2 SSW 32 46 17 25 1022.7 - 0.6
29/04:00pm 15.4 9.6 11.6 78 2.0 SSW 33 48 18 26 1022.7 1022.7 0.6
29/03:58pm 15.3 9.1 11.3 77 2.1 SSW 35 56 19 30 1022.7 - 0.6
29/03:30pm 15.4 9.6 11.4 77 2.1 S 33 46 18 25 1022.6 - 0.6
29/03:08pm 16.2 10.1 11.6 74 2.5 S 35 54 19 29 1022.8 - 0.6
29/03:00pm 15.9 9.2 11.1 73 2.6 SSW 37 50 20 27 1022.9 1022.9 0.6
29/02:30pm 15.4 10.6 11.8 79 1.9 SSW 28 39 15 21 1023.2 - 0.6
29/02:00pm 15.5 10.2 11.1 75 2.3 SSW 30 43 16 23 1023.6 1023.6 0.4
29/01:30pm 15.0 10.5 11.4 79 1.9 SSW 26 37 14 20 1023.8 - 0.4
29/01:00pm 15.5 10.2 11.3 76 2.2 SSW 30 41 16 22 1023.7 1023.7 0.4
29/12:30pm 15.1 11.8 11.5 79 1.9 SSW 20 35 11 19 1024.3 - 0.4
29/12:00pm 14.6 10.4 11.2 80 1.8 SSW 24 37 13 20 1024.7 1024.7 0.4
29/11:30am 15.5 12.2 11.5 77 2.2 SSW 20 30 11 16 1025.1 - 0.4
29/11:00am 15.1 11.8 11.5 79 1.9 SSW 20 28 11 15 1025.3 1025.3 0.4
29/10:30am 14.4 11.2 11.2 81 1.7 SSW 19 28 10 15 1025.6 - 0.4
29/10:00am 13.6 9.1 11.5 87 1.1 SSW 26 41 14 22 1025.6 1025.6 0.4
29/09:30am 14.1 11.1 10.7 80 1.8 SW 17 30 9 16 1025.9 - 0.0
29/09:00am 12.9 10.1 10.1 83 1.4 SW 15 24 8 13 1026.2 1026.2 1.0
29/08:30am 13.5 10.8 10.5 82 1.6 SW 15 26 8 14 1026.0 - 1.0
29/08:00am 13.1 10.8 10.5 84 1.3 SW 13 26 7 14 1025.9 1025.9 1.0
29/07:30am 11.9 9.4 9.6 86 1.2 WSW 13 22 7 12 1025.8 - 0.8
29/07:00am 10.9 8.6 9.0 88 0.9 W 11 17 6 9 1025.8 1025.8 0.8
29/06:30am 11.1 8.9 9.2 88 0.9 SW 11 20 6 11 1025.5 - 0.8
29/06:00am 11.4 9.1 9.1 86 1.1 WSW 11 19 6 10 1025.2 1025.2 0.6
29/05:30am 11.5 8.9 9.2 86 1.2 WSW 13 22 7 12 1024.8 - 0.4
29/05:00am 11.5 8.0 8.9 84 1.3 WSW 17 26 9 14 1024.8 1024.8 0.4
29/04:30am 11.7 8.6 8.9 83 1.4 WSW 15 22 8 12 1024.7 - 0.4
29/04:00am 11.4 8.7 9.0 85 1.2 WSW 13 20 7 11 1024.8 1024.8 0.4
29/03:30am 11.7 8.7 9.4 86 1.2 SW 15 28 8 15 1024.8 - 0.4
29/03:00am 11.9 8.5 9.3 84 1.3 SW 17 24 9 13 1024.8 1024.8 0.2
29/02:30am 12.1 9.5 9.3 83 1.4 WSW 13 26 7 14 1025.2 - 0.0
29/02:00am 11.9 9.6 8.9 82 1.5 WSW 11 17 6 9 1025.5 1025.5 0.0
29/01:30am 12.3 9.9 8.8 79 1.7 SW 11 17 6 9 1025.7 - 0.0
29/01:00am 12.5 9.8 8.8 78 1.8 WSW 13 20 7 11 1026.2 1026.2 0.0
29/12:30am 12.9 10.5 8.8 76 2.1 W 11 19 6 10 1026.2 - 0.0
29/12:00am 15.0 11.1 8.5 65 3.3 S 19 30 10 16 1026.1 1026.1 0.0
 
Date/Time
EST
Temp
°C
App
Temp
°C
Dew
Point
Rel
Hum
%
Delta-T
°C
Wind Press
QNH
hPa
Press
MSL
hPa
Rain
since 9 am
mm
Dir
 
Spd
km/h
Gust
km/h
Spd
kts
Gust
kts
28/11:30pm 15.3 9.2 9.7 69 2.9 S 32 43 17 23 1026.2 - 0.0
28/11:00pm 14.9 10.1 10.3 74 2.4 S 26 37 14 20 1026.5 1026.5 0.0
28/10:30pm 14.8 7.9 10.2 74 2.4 S 37 52 20 28 1026.4 - 0.0
28/10:25pm 15.7 9.8 8.9 64 3.5 S 30 50 16 27 1026.4 - 0.0
28/10:00pm 15.5 9.0 9.0 65 3.3 S 33 43 18 23 1026.6 1026.6 0.0
28/09:30pm 15.6 9.1 8.8 64 3.5 S 33 46 18 25 1026.7 - 0.0
28/09:00pm 15.7 8.1 7.7 59 4.0 S 37 44 20 24 1026.7 1026.7 0.0
28/08:30pm 15.8 9.3 8.8 63 3.6 S 33 44 18 24 1026.4 - 0.0
28/08:00pm 15.7 8.5 9.1 65 3.4 S 37 46 20 25 1026.2 1026.2 0.0
28/07:30pm 15.7 8.4 8.9 64 3.5 S 37 46 20 25 1026.3 - 0.0
28/07:00pm 15.9 8.9 10.0 68 3.1 S 37 44 20 24 1026.1 1026.1 0.0
28/06:30pm 15.9 8.9 9.8 67 3.2 S 37 44 20 24 1026.0 - 0.0
28/06:00pm 16.0 7.5 8.5 61 3.8 S 43 48 23 26 1025.8 1025.8 0.0
28/05:30pm 16.1 8.6 9.5 65 3.4 S 39 48 21 26 1025.6 - 0.0
28/05:00pm 16.2 9.1 9.6 65 3.4 S 37 48 20 26 1025.3 1025.3 0.0
28/04:30pm 16.3 9.2 9.5 64 3.5 S 37 46 20 25 1025.2 - 0.0
28/04:00pm 16.6 9.3 10.2 66 3.4 S 39 50 21 27 1024.9 1024.9 0.0
28/03:30pm 17.0 8.7 9.9 63 3.7 S 44 52 24 28 1024.5 - 0.0
28/03:00pm 17.3 9.2 10.2 63 3.7 S 43 48 23 26 1024.4 1024.4 0.0
28/02:30pm 17.4 9.9 10.8 65 3.5 SSE 41 48 22 26 1024.4 - 0.0
28/02:00pm 17.6 10.3 11.4 67 3.4 SSE 41 50 22 27 1024.3 1024.3 0.0
28/01:30pm 18.0 10.4 10.6 62 4.0 SSE 41 46 22 25 1024.3 - 0.0
28/01:00pm 17.9 11.1 10.8 63 3.8 SSE 37 44 20 24 1024.3 1024.3 0.0
28/12:30pm 18.1 11.2 11.7 66 3.5 SSE 39 44 21 24 1024.6 - 0.0
28/12:00pm 17.1 10.5 11.2 68 3.2 S 37 41 20 22 1024.9 1024.9 0.0
28/11:30am 18.0 12.8 13.3 74 2.7 SE 33 44 18 24 1025.5 - 0.0
28/11:00am 17.8 10.0 11.1 65 3.6 SSE 43 50 23 27 1025.3 1025.3 0.0
28/10:30am 17.7 10.7 11.3 66 3.5 SSE 39 48 21 26 1025.4 - 0.0
28/10:00am 16.6 11.0 12.2 75 2.4 SSE 33 41 18 22 1025.4 1025.4 0.0
28/09:30am 17.9 11.3 11.5 66 3.5 SSE 37 46 20 25 1025.3 - 0.0
28/09:00am 17.3 10.9 10.7 65 3.5 SSE 35 43 19 23 1025.3 1025.3 9.8
28/08:30am 17.2 11.7 10.6 65 3.5 SSE 30 37 16 20 1025.4 - 9.8
28/08:00am 16.7 10.2 10.3 66 3.4 SE 35 41 19 22 1025.1 1025.1 9.8
28/07:30am 15.9 9.4 11.7 76 2.3 SE 37 46 20 25 1024.7 - 9.8
28/07:20am 14.5 9.5 12.2 86 1.2 SE 30 48 16 26 1024.5 - 9.8
28/07:00am 13.2 11.4 12.1 93 0.6 W 13 20 7 11 1024.7 1024.7 9.8
28/06:30am 14.7 13.0 12.6 87 1.1 SSE 13 17 7 9 1024.5 - 9.8
28/06:00am 14.7 11.1 12.9 89 1.0 SE 24 30 13 16 1024.1 1024.1 9.8
28/05:30am 14.0 8.7 12.4 90 0.9 SE 32 41 17 22 1023.8 - 9.6
28/05:00am 14.4 10.4 13.1 92 0.7 SSE 26 33 14 18 1023.5 1023.5 9.4
28/04:30am 14.2 12.7 13.2 94 0.6 ESE 13 22 7 12 1023.6 - 9.4
28/04:00am 13.2 11.8 12.3 94 0.5 WSW 11 17 6 9 1023.3 1023.3 7.4
28/03:30am 13.2 13.2 12.3 94 0.5 SW 4 11 2 6 1023.7 - 7.2
28/03:00am 13.1 12.0 12.0 93 0.6 W 9 15 5 8 1023.6 1023.6 7.0
28/02:30am 13.4 12.4 12.3 93 0.6 WSW 9 19 5 10 1023.4 - 6.8
28/02:00am 13.8 12.3 12.0 89 1.0 WSW 11 17 6 9 1023.7 1023.7 6.8
28/01:30am 14.9 12.4 13.4 91 0.8 S 19 28 10 15 1023.9 - 6.8
28/01:00am 14.5 10.6 13.2 92 0.7 S 26 33 14 18 1024.1 1024.1 6.8
28/12:30am 14.3 7.8 12.9 91 0.8 S 39 46 21 25 1024.1 - 6.6
28/12:29am 14.2 7.7 12.8 91 0.8 S 39 46 21 25 1024.2 - 6.6
28/12:12am 14.8 3.9 12.1 84 1.5 S 61 69 33 37 1023.6 - 5.0
28/12:10am 15.9 9.4 12.8 82 1.7 S 39 63 21 34 1023.8 - 4.6
28/12:00am 15.9 10.6 13.0 83 1.6 S 33 41 18 22 1023.9 1023.9 4.4
 
Date/Time
EST
Temp
°C
App
Temp
°C
Dew
Point
Rel
Hum
%
Delta-T
°C
Wind Press
QNH
hPa
Press
MSL
hPa
Rain
since 9 am
mm
Dir
 
Spd
km/h
Gust
km/h
Spd
kts
Gust
kts
27/11:30pm 15.8 9.1 12.4 80 1.9 S 39 48 21 26 1024.0 - 4.4
27/11:00pm 14.9 7.3 11.9 82 1.6 S 43 54 23 29 1024.2 1024.2 4.4
27/10:30pm 14.6 6.0 11.6 82 1.6 S 48 59 26 32 1024.2 - 4.4
27/10:00pm 15.7 6.7 11.5 76 2.3 S 50 63 27 34 1024.0 1024.0 4.4
27/09:30pm 16.1 6.5 10.8 71 2.8 S 52 61 28 33 1024.1 - 4.4
27/09:00pm 16.2 7.4 10.9 71 2.8 S 48 57 26 31 1024.0 1024.0 4.4
27/08:30pm 16.2 8.1 12.0 76 2.3 S 46 57 25 31 1023.9 - 4.4
27/08:00pm 16.0 6.3 11.8 76 2.3 S 54 63 29 34 1024.0 1024.0 4.4
27/07:31pm 14.2 6.2 11.2 82 1.6 S 44 63 24 34 1024.1 - 4.4
27/07:30pm 14.0 5.6 11.2 83 1.5 S 46 63 25 34 1024.2 - 4.4
27/07:00pm 14.0 3.7 11.2 83 1.5 SSE 56 69 30 37 1023.7 1023.7 3.8
27/06:30pm 15.3 6.3 12.8 85 1.4 SSE 52 63 28 34 1023.7 - 3.6
27/06:00pm 15.5 6.5 11.5 77 2.1 S 50 57 27 31 1023.3 1023.3 3.4
27/05:30pm 15.4 5.2 13.1 86 1.3 SSE 59 69 32 37 1022.9 - 3.4
27/05:00pm 16.3 7.3 12.7 79 2.0 SSE 52 63 28 34 1022.7 1022.7 3.4
27/04:30pm 16.4 7.9 13.1 81 1.8 SSE 50 57 27 31 1022.3 - 3.4
27/04:00pm 16.0 7.7 12.7 81 1.8 SSE 48 57 26 31 1022.2 1022.2 3.4
27/03:30pm 15.6 8.3 13.4 87 1.2 SSE 44 54 24 29 1022.1 - 3.4
27/03:11pm 15.2 6.3 12.0 81 1.7 SSE 50 69 27 37 1022.4 - 1.6
27/03:00pm 16.6 8.5 12.0 74 2.5 SE 46 56 25 30 1022.2 1022.2 0.2
27/02:30pm 17.0 8.9 11.9 72 2.8 S 46 54 25 29 1022.2 - 0.2
27/02:07pm 16.6 11.1 12.4 76 2.3 S 33 46 18 25 1022.3 - 0.2
27/02:00pm 15.9 12.9 12.1 78 2.1 SSW 19 26 10 14 1022.6 1022.6 0.2
27/01:53pm 15.7 11.9 11.1 74 2.5 SSW 22 26 12 14 1022.6 - 0.2
27/01:30pm 16.5 9.0 12.1 75 2.4 S 43 54 23 29 1022.7 - 0.2
27/01:00pm 17.8 11.2 12.5 71 2.9 S 39 46 21 25 1022.7 1022.7 0.2
27/12:30pm 17.4 10.5 12.9 75 2.5 SSE 41 48 22 26 1022.7 - 0.2
27/12:00pm 16.8 9.9 12.9 78 2.2 S 41 46 22 25 1023.2 1023.2 0.2
27/11:30am 17.3 10.6 12.4 73 2.7 SSE 39 48 21 26 1023.5 - 0.2
27/11:00am 16.1 9.3 11.9 76 2.3 SSE 39 50 21 27 1023.9 1023.9 0.2
27/10:30am 16.4 9.4 12.6 78 2.1 SSE 41 48 22 26 1024.0 - 0.2
27/10:00am 16.3 9.6 12.3 77 2.2 SE 39 50 21 27 1024.2 1024.2 0.0
27/09:30am 18.1 11.0 12.3 69 3.2 SE 41 48 22 26 1023.7 - 0.0
27/09:00am 17.5 10.0 12.2 71 2.9 SSE 43 50 23 27 1023.6 1023.6 16.2
27/08:30am 17.4 10.0 12.3 72 2.8 SSE 43 50 23 27 1023.6 - 16.2
27/08:00am 16.8 10.2 12.5 76 2.4 SSE 39 44 21 24 1023.3 1023.3 16.2

Other Formats:

Comma delimited format used in spreadsheet applications
http://www.bom.gov.au/fwo/IDN60801/IDN60801.95770.axf

JavaScript Object Notation format (JSON) in row-major order
http://www.bom.gov.au/fwo/IDN60801/IDN60801.95770.json